sensor_id;sensor_type;location;lat;lon;timestamp;P1;durP1;ratioP1;P2;durP2;ratioP2
12314;SDS011;23886;46.614;14.276;2023-05-14T00:01:34;7.53;;;6.83;;
12314;SDS011;23886;46.614;14.276;2023-05-14T00:04:01;8.43;;;7.13;;
12314;SDS011;23886;46.614;14.276;2023-05-14T00:06:28;8.57;;;7.70;;
12314;SDS011;23886;46.614;14.276;2023-05-14T00:08:55;8.77;;;7.97;;
12314;SDS011;23886;46.614;14.276;2023-05-14T00:11:23;8.23;;;7.43;;
12314;SDS011;23886;46.614;14.276;2023-05-14T00:13:50;7.33;;;6.63;;
12314;SDS011;23886;46.614;14.276;2023-05-14T00:16:16;8.20;;;7.17;;
12314;SDS011;23886;46.614;14.276;2023-05-14T00:18:45;7.93;;;7.17;;
12314;SDS011;23886;46.614;14.276;2023-05-14T00:21:12;7.90;;;7.10;;
12314;SDS011;23886;46.614;14.276;2023-05-14T00:23:39;7.97;;;7.03;;
12314;SDS011;23886;46.614;14.276;2023-05-14T00:26:06;9.20;;;7.70;;
12314;SDS011;23886;46.614;14.276;2023-05-14T00:28:33;7.70;;;7.00;;
12314;SDS011;23886;46.614;14.276;2023-05-14T00:31:00;8.90;;;6.80;;
12314;SDS011;23886;46.614;14.276;2023-05-14T00:33:27;9.37;;;6.77;;
12314;SDS011;23886;46.614;14.276;2023-05-14T00:35:55;9.20;;;6.60;;
12314;SDS011;23886;46.614;14.276;2023-05-14T00:38:22;9.87;;;6.40;;
12314;SDS011;23886;46.614;14.276;2023-05-14T00:40:51;10.07;;;7.37;;
12314;SDS011;23886;46.614;14.276;2023-05-14T00:43:18;9.83;;;7.17;;
12314;SDS011;23886;46.614;14.276;2023-05-14T00:45:46;7.80;;;7.00;;
12314;SDS011;23886;46.614;14.276;2023-05-14T00:48:15;8.03;;;7.23;;
12314;SDS011;23886;46.614;14.276;2023-05-14T00:50:42;10.23;;;7.23;;
12314;SDS011;23886;46.614;14.276;2023-05-14T00:53:10;11.20;;;7.17;;
12314;SDS011;23886;46.614;14.276;2023-05-14T00:55:39;10.07;;;7.33;;
12314;SDS011;23886;46.614;14.276;2023-05-14T00:58:08;11.20;;;7.47;;
12314;SDS011;23886;46.614;14.276;2023-05-14T01:00:36;10.60;;;8.07;;
12314;SDS011;23886;46.614;14.276;2023-05-14T01:03:05;10.07;;;7.97;;
12314;SDS011;23886;46.614;14.276;2023-05-14T01:05:35;8.33;;;7.00;;
12314;SDS011;23886;46.614;14.276;2023-05-14T01:08:08;11.73;;;7.43;;
12314;SDS011;23886;46.614;14.276;2023-05-14T01:10:51;11.50;;;7.67;;
12314;SDS011;23886;46.614;14.276;2023-05-14T01:13:26;8.80;;;7.40;;
12314;SDS011;23886;46.614;14.276;2023-05-14T01:15:57;11.07;;;7.33;;
12314;SDS011;23886;46.614;14.276;2023-05-14T01:18:25;9.53;;;6.47;;
12314;SDS011;23886;46.614;14.276;2023-05-14T01:20:54;9.63;;;7.13;;
12314;SDS011;23886;46.614;14.276;2023-05-14T01:23:22;11.93;;;6.63;;
12314;SDS011;23886;46.614;14.276;2023-05-14T01:25:49;7.90;;;6.27;;
12314;SDS011;23886;46.614;14.276;2023-05-14T01:28:17;8.63;;;5.70;;
12314;SDS011;23886;46.614;14.276;2023-05-14T01:30:47;7.80;;;5.77;;
12314;SDS011;23886;46.614;14.276;2023-05-14T01:33:18;6.17;;;5.43;;
12314;SDS011;23886;46.614;14.276;2023-05-14T01:35:50;6.50;;;5.60;;
12314;SDS011;23886;46.614;14.276;2023-05-14T01:38:18;7.40;;;5.43;;
12314;SDS011;23886;46.614;14.276;2023-05-14T01:40:48;7.53;;;5.47;;
12314;SDS011;23886;46.614;14.276;2023-05-14T01:43:16;8.50;;;5.27;;
12314;SDS011;23886;46.614;14.276;2023-05-14T01:45:44;5.23;;;4.73;;
12314;SDS011;23886;46.614;14.276;2023-05-14T01:48:11;5.77;;;4.67;;
12314;SDS011;23886;46.614;14.276;2023-05-14T01:50:38;5.73;;;4.93;;
12314;SDS011;23886;46.614;14.276;2023-05-14T01:53:05;7.97;;;5.47;;
12314;SDS011;23886;46.614;14.276;2023-05-14T01:55:32;6.10;;;4.93;;
12314;SDS011;23886;46.614;14.276;2023-05-14T01:58:00;7.33;;;5.33;;
12314;SDS011;23886;46.614;14.276;2023-05-14T02:00:27;7.17;;;5.53;;
12314;SDS011;23886;46.614;14.276;2023-05-14T02:02:54;8.40;;;5.40;;
12314;SDS011;23886;46.614;14.276;2023-05-14T02:05:21;7.33;;;5.67;;
12314;SDS011;23886;46.614;14.276;2023-05-14T02:07:48;10.83;;;5.53;;
12314;SDS011;23886;46.614;14.276;2023-05-14T02:10:15;6.60;;;6.00;;
12314;SDS011;23886;46.614;14.276;2023-05-14T02:12:42;8.10;;;5.80;;
12314;SDS011;23886;46.614;14.276;2023-05-14T02:15:11;7.50;;;5.17;;
12314;SDS011;23886;46.614;14.276;2023-05-14T02:17:38;7.23;;;5.57;;
12314;SDS011;23886;46.614;14.276;2023-05-14T02:20:05;6.67;;;5.23;;
12314;SDS011;23886;46.614;14.276;2023-05-14T02:22:34;6.97;;;5.67;;
12314;SDS011;23886;46.614;14.276;2023-05-14T02:25:01;5.50;;;4.90;;
12314;SDS011;23886;46.614;14.276;2023-05-14T02:27:28;5.67;;;5.03;;
12314;SDS011;23886;46.614;14.276;2023-05-14T02:29:55;5.93;;;5.13;;
12314;SDS011;23886;46.614;14.276;2023-05-14T02:32:26;5.77;;;4.80;;
12314;SDS011;23886;46.614;14.276;2023-05-14T02:34:53;6.70;;;5.20;;
12314;SDS011;23886;46.614;14.276;2023-05-14T02:37:20;6.27;;;5.03;;
12314;SDS011;23886;46.614;14.276;2023-05-14T02:39:46;5.97;;;5.37;;
12314;SDS011;23886;46.614;14.276;2023-05-14T02:42:14;6.87;;;5.33;;
12314;SDS011;23886;46.614;14.276;2023-05-14T02:44:41;6.83;;;4.97;;
12314;SDS011;23886;46.614;14.276;2023-05-14T02:47:08;6.17;;;5.03;;
12314;SDS011;23886;46.614;14.276;2023-05-14T02:49:36;6.43;;;5.17;;
12314;SDS011;23886;46.614;14.276;2023-05-14T02:52:04;6.83;;;4.83;;
12314;SDS011;23886;46.614;14.276;2023-05-14T02:54:31;6.80;;;4.90;;
12314;SDS011;23886;46.614;14.276;2023-05-14T02:56:58;9.50;;;5.20;;
12314;SDS011;23886;46.614;14.276;2023-05-14T02:59:25;8.53;;;5.33;;
12314;SDS011;23886;46.614;14.276;2023-05-14T03:01:52;7.70;;;5.00;;
12314;SDS011;23886;46.614;14.276;2023-05-14T03:04:19;7.93;;;5.43;;
12314;SDS011;23886;46.614;14.276;2023-05-14T03:06:47;9.07;;;5.57;;
12314;SDS011;23886;46.614;14.276;2023-05-14T03:09:14;9.10;;;5.70;;
12314;SDS011;23886;46.614;14.276;2023-05-14T03:11:41;8.40;;;5.60;;
12314;SDS011;23886;46.614;14.276;2023-05-14T03:14:08;8.63;;;5.63;;
12314;SDS011;23886;46.614;14.276;2023-05-14T03:16:35;6.93;;;5.40;;
12314;SDS011;23886;46.614;14.276;2023-05-14T03:19:04;6.77;;;5.17;;
12314;SDS011;23886;46.614;14.276;2023-05-14T03:21:31;5.30;;;4.80;;
12314;SDS011;23886;46.614;14.276;2023-05-14T03:23:59;10.67;;;5.80;;
12314;SDS011;23886;46.614;14.276;2023-05-14T03:26:26;9.20;;;5.70;;
12314;SDS011;23886;46.614;14.276;2023-05-14T03:28:53;6.70;;;5.57;;
12314;SDS011;23886;46.614;14.276;2023-05-14T03:31:20;6.07;;;5.03;;
12314;SDS011;23886;46.614;14.276;2023-05-14T03:33:47;9.27;;;5.80;;
12314;SDS011;23886;46.614;14.276;2023-05-14T03:36:14;8.63;;;5.40;;
12314;SDS011;23886;46.614;14.276;2023-05-14T03:38:41;6.93;;;5.40;;
12314;SDS011;23886;46.614;14.276;2023-05-14T03:41:09;7.47;;;5.13;;
12314;SDS011;23886;46.614;14.276;2023-05-14T03:43:36;9.07;;;5.53;;
12314;SDS011;23886;46.614;14.276;2023-05-14T03:46:03;7.00;;;5.40;;
12314;SDS011;23886;46.614;14.276;2023-05-14T03:48:30;9.97;;;5.40;;
12314;SDS011;23886;46.614;14.276;2023-05-14T03:50:57;9.03;;;5.30;;
12314;SDS011;23886;46.614;14.276;2023-05-14T03:53:24;7.60;;;5.47;;
12314;SDS011;23886;46.614;14.276;2023-05-14T03:55:51;8.27;;;6.20;;
12314;SDS011;23886;46.614;14.276;2023-05-14T03:58:19;9.33;;;5.73;;
12314;SDS011;23886;46.614;14.276;2023-05-14T04:00:46;7.63;;;6.13;;
12314;SDS011;23886;46.614;14.276;2023-05-14T04:03:13;7.10;;;6.10;;
12314;SDS011;23886;46.614;14.276;2023-05-14T04:05:40;9.00;;;6.37;;
12314;SDS011;23886;46.614;14.276;2023-05-14T04:08:07;9.17;;;6.53;;
12314;SDS011;23886;46.614;14.276;2023-05-14T04:10:34;9.30;;;6.37;;
12314;SDS011;23886;46.614;14.276;2023-05-14T04:13:01;8.90;;;6.07;;
12314;SDS011;23886;46.614;14.276;2023-05-14T04:15:29;7.60;;;6.53;;
12314;SDS011;23886;46.614;14.276;2023-05-14T04:17:57;10.47;;;6.33;;
12314;SDS011;23886;46.614;14.276;2023-05-14T04:20:24;6.87;;;6.23;;
12314;SDS011;23886;46.614;14.276;2023-05-14T04:22:50;7.43;;;5.97;;
12314;SDS011;23886;46.614;14.276;2023-05-14T04:25:18;6.47;;;5.87;;
12314;SDS011;23886;46.614;14.276;2023-05-14T04:27:45;6.10;;;5.37;;
12314;SDS011;23886;46.614;14.276;2023-05-14T04:30:12;8.27;;;5.93;;
12314;SDS011;23886;46.614;14.276;2023-05-14T04:32:40;11.47;;;5.60;;
12314;SDS011;23886;46.614;14.276;2023-05-14T04:35:08;7.00;;;5.80;;
12314;SDS011;23886;46.614;14.276;2023-05-14T04:37:36;7.57;;;5.67;;
12314;SDS011;23886;46.614;14.276;2023-05-14T04:40:05;8.33;;;5.40;;
12314;SDS011;23886;46.614;14.276;2023-05-14T04:42:35;9.07;;;5.73;;
12314;SDS011;23886;46.614;14.276;2023-05-14T04:45:02;6.67;;;5.13;;
12314;SDS011;23886;46.614;14.276;2023-05-14T04:47:30;5.87;;;5.30;;
12314;SDS011;23886;46.614;14.276;2023-05-14T04:49:58;8.73;;;5.50;;
12314;SDS011;23886;46.614;14.276;2023-05-14T04:52:25;6.40;;;5.30;;
12314;SDS011;23886;46.614;14.276;2023-05-14T04:54:52;8.07;;;5.10;;
12314;SDS011;23886;46.614;14.276;2023-05-14T04:57:20;7.40;;;5.13;;
12314;SDS011;23886;46.614;14.276;2023-05-14T04:59:47;7.03;;;5.50;;
12314;SDS011;23886;46.614;14.276;2023-05-14T05:02:14;7.70;;;5.77;;
12314;SDS011;23886;46.614;14.276;2023-05-14T05:04:41;7.10;;;5.60;;
12314;SDS011;23886;46.614;14.276;2023-05-14T05:07:10;6.83;;;5.53;;
12314;SDS011;23886;46.614;14.276;2023-05-14T05:09:37;6.23;;;5.40;;
12314;SDS011;23886;46.614;14.276;2023-05-14T05:12:04;7.77;;;5.53;;
12314;SDS011;23886;46.614;14.276;2023-05-14T05:14:32;6.57;;;5.80;;
12314;SDS011;23886;46.614;14.276;2023-05-14T05:16:59;6.73;;;5.83;;
12314;SDS011;23886;46.614;14.276;2023-05-14T05:19:26;7.57;;;5.80;;
12314;SDS011;23886;46.614;14.276;2023-05-14T05:21:53;7.57;;;6.20;;
12314;SDS011;23886;46.614;14.276;2023-05-14T05:24:21;5.93;;;5.37;;
12314;SDS011;23886;46.614;14.276;2023-05-14T05:26:48;7.40;;;5.87;;
12314;SDS011;23886;46.614;14.276;2023-05-14T05:29:16;5.67;;;5.17;;
12314;SDS011;23886;46.614;14.276;2023-05-14T05:31:42;6.03;;;5.17;;
12314;SDS011;23886;46.614;14.276;2023-05-14T05:34:09;6.77;;;5.40;;
12314;SDS011;23886;46.614;14.276;2023-05-14T05:36:36;8.20;;;5.80;;
12314;SDS011;23886;46.614;14.276;2023-05-14T05:39:03;7.37;;;5.83;;
12314;SDS011;23886;46.614;14.276;2023-05-14T05:41:32;6.33;;;5.70;;
12314;SDS011;23886;46.614;14.276;2023-05-14T05:43:59;7.50;;;5.93;;
12314;SDS011;23886;46.614;14.276;2023-05-14T05:46:26;5.93;;;5.20;;
12314;SDS011;23886;46.614;14.276;2023-05-14T05:48:53;8.13;;;5.50;;
12314;SDS011;23886;46.614;14.276;2023-05-14T05:51:19;9.37;;;5.57;;
12314;SDS011;23886;46.614;14.276;2023-05-14T05:53:46;6.83;;;5.07;;
12314;SDS011;23886;46.614;14.276;2023-05-14T05:56:13;7.03;;;5.10;;
12314;SDS011;23886;46.614;14.276;2023-05-14T05:58:42;5.60;;;5.10;;
12314;SDS011;23886;46.614;14.276;2023-05-14T06:01:09;5.23;;;4.73;;
12314;SDS011;23886;46.614;14.276;2023-05-14T06:03:36;5.43;;;4.30;;
12314;SDS011;23886;46.614;14.276;2023-05-14T06:06:03;5.73;;;4.60;;
12314;SDS011;23886;46.614;14.276;2023-05-14T06:08:30;7.03;;;4.50;;
12314;SDS011;23886;46.614;14.276;2023-05-14T06:10:57;7.00;;;5.23;;
12314;SDS011;23886;46.614;14.276;2023-05-14T06:13:24;5.27;;;4.23;;
12314;SDS011;23886;46.614;14.276;2023-05-14T06:15:53;4.83;;;4.30;;
12314;SDS011;23886;46.614;14.276;2023-05-14T06:18:20;5.53;;;4.40;;
12314;SDS011;23886;46.614;14.276;2023-05-14T06:20:47;5.10;;;4.33;;
12314;SDS011;23886;46.614;14.276;2023-05-14T06:23:14;4.83;;;4.33;;
12314;SDS011;23886;46.614;14.276;2023-05-14T06:25:41;5.87;;;4.37;;
12314;SDS011;23886;46.614;14.276;2023-05-14T06:28:08;5.37;;;4.00;;
12314;SDS011;23886;46.614;14.276;2023-05-14T06:30:34;4.57;;;3.90;;
12314;SDS011;23886;46.614;14.276;2023-05-14T06:33:03;4.40;;;3.43;;
12314;SDS011;23886;46.614;14.276;2023-05-14T06:35:30;4.63;;;3.67;;
12314;SDS011;23886;46.614;14.276;2023-05-14T06:37:58;3.80;;;3.50;;
12314;SDS011;23886;46.614;14.276;2023-05-14T06:40:25;4.53;;;3.53;;
12314;SDS011;23886;46.614;14.276;2023-05-14T06:42:52;5.03;;;3.90;;
12314;SDS011;23886;46.614;14.276;2023-05-14T06:45:19;4.63;;;3.33;;
12314;SDS011;23886;46.614;14.276;2023-05-14T06:47:46;4.57;;;3.80;;
12314;SDS011;23886;46.614;14.276;2023-05-14T06:50:15;4.17;;;3.67;;
12314;SDS011;23886;46.614;14.276;2023-05-14T06:52:42;6.17;;;3.83;;
12314;SDS011;23886;46.614;14.276;2023-05-14T06:55:09;4.03;;;3.63;;
12314;SDS011;23886;46.614;14.276;2023-05-14T06:57:36;5.70;;;4.00;;
12314;SDS011;23886;46.614;14.276;2023-05-14T07:00:04;4.33;;;3.50;;
12314;SDS011;23886;46.614;14.276;2023-05-14T07:02:32;4.10;;;3.70;;
12314;SDS011;23886;46.614;14.276;2023-05-14T07:04:59;4.87;;;3.87;;
12314;SDS011;23886;46.614;14.276;2023-05-14T07:07:28;4.33;;;3.73;;
12314;SDS011;23886;46.614;14.276;2023-05-14T07:09:55;4.47;;;3.67;;
12314;SDS011;23886;46.614;14.276;2023-05-14T07:12:22;4.73;;;4.23;;
12314;SDS011;23886;46.614;14.276;2023-05-14T07:14:49;4.03;;;3.73;;
12314;SDS011;23886;46.614;14.276;2023-05-14T07:17:16;3.23;;;3.03;;
12314;SDS011;23886;46.614;14.276;2023-05-14T07:19:43;3.37;;;3.07;;
12314;SDS011;23886;46.614;14.276;2023-05-14T07:22:11;3.17;;;2.87;;
12314;SDS011;23886;46.614;14.276;2023-05-14T07:24:39;3.97;;;3.60;;
12314;SDS011;23886;46.614;14.276;2023-05-14T07:27:06;3.50;;;3.20;;
12314;SDS011;23886;46.614;14.276;2023-05-14T07:29:33;3.20;;;2.90;;
12314;SDS011;23886;46.614;14.276;2023-05-14T07:32:00;3.20;;;3.00;;
12314;SDS011;23886;46.614;14.276;2023-05-14T07:34:27;3.30;;;3.00;;
12314;SDS011;23886;46.614;14.276;2023-05-14T07:36:54;3.77;;;2.80;;
12314;SDS011;23886;46.614;14.276;2023-05-14T07:39:21;4.10;;;3.20;;
12314;SDS011;23886;46.614;14.276;2023-05-14T07:41:50;3.27;;;3.03;;
12314;SDS011;23886;46.614;14.276;2023-05-14T07:44:18;4.53;;;3.37;;
12314;SDS011;23886;46.614;14.276;2023-05-14T07:46:45;3.57;;;3.20;;
12314;SDS011;23886;46.614;14.276;2023-05-14T07:49:12;3.93;;;3.60;;
12314;SDS011;23886;46.614;14.276;2023-05-14T07:51:39;4.13;;;3.20;;
12314;SDS011;23886;46.614;14.276;2023-05-14T07:54:06;4.00;;;3.30;;
12314;SDS011;23886;46.614;14.276;2023-05-14T07:56:33;3.73;;;3.10;;
12314;SDS011;23886;46.614;14.276;2023-05-14T07:59:02;3.50;;;3.20;;
12314;SDS011;23886;46.614;14.276;2023-05-14T08:01:29;4.00;;;3.03;;
12314;SDS011;23886;46.614;14.276;2023-05-14T08:03:56;3.93;;;3.20;;
12314;SDS011;23886;46.614;14.276;2023-05-14T08:06:23;3.33;;;2.67;;
12314;SDS011;23886;46.614;14.276;2023-05-14T08:08:51;4.07;;;3.10;;
12314;SDS011;23886;46.614;14.276;2023-05-14T08:11:18;4.37;;;3.80;;
12314;SDS011;23886;46.614;14.276;2023-05-14T08:13:46;11.57;;;10.47;;
12314;SDS011;23886;46.614;14.276;2023-05-14T08:16:14;3.73;;;3.40;;
12314;SDS011;23886;46.614;14.276;2023-05-14T08:18:41;3.33;;;2.90;;
12314;SDS011;23886;46.614;14.276;2023-05-14T08:21:08;5.70;;;4.30;;
12314;SDS011;23886;46.614;14.276;2023-05-14T08:23:35;5.03;;;4.50;;
12314;SDS011;23886;46.614;14.276;2023-05-14T08:26:02;6.07;;;5.50;;
12314;SDS011;23886;46.614;14.276;2023-05-14T08:28:29;3.53;;;3.23;;
12314;SDS011;23886;46.614;14.276;2023-05-14T08:30:56;3.83;;;2.90;;
12314;SDS011;23886;46.614;14.276;2023-05-14T08:33:24;3.77;;;3.20;;
12314;SDS011;23886;46.614;14.276;2023-05-14T08:35:52;2.80;;;2.50;;
12314;SDS011;23886;46.614;14.276;2023-05-14T08:38:19;3.17;;;2.87;;
12314;SDS011;23886;46.614;14.276;2023-05-14T08:40:46;2.87;;;2.57;;
12314;SDS011;23886;46.614;14.276;2023-05-14T08:43:15;2.97;;;2.67;;
12314;SDS011;23886;46.614;14.276;2023-05-14T08:45:50;4.77;;;3.50;;
12314;SDS011;23886;46.614;14.276;2023-05-14T08:48:22;3.23;;;3.00;;
12314;SDS011;23886;46.614;14.276;2023-05-14T08:50:57;3.07;;;2.77;;
12314;SDS011;23886;46.614;14.276;2023-05-14T08:53:25;4.67;;;3.33;;
12314;SDS011;23886;46.614;14.276;2023-05-14T08:55:53;4.00;;;3.30;;
12314;SDS011;23886;46.614;14.276;2023-05-14T08:58:20;3.40;;;3.10;;
12314;SDS011;23886;46.614;14.276;2023-05-14T09:00:47;3.70;;;3.23;;
12314;SDS011;23886;46.614;14.276;2023-05-14T09:03:14;4.20;;;3.80;;
12314;SDS011;23886;46.614;14.276;2023-05-14T09:05:43;5.50;;;4.60;;
12314;SDS011;23886;46.614;14.276;2023-05-14T09:08:11;5.33;;;4.67;;
12314;SDS011;23886;46.614;14.276;2023-05-14T09:10:38;5.30;;;4.80;;
12314;SDS011;23886;46.614;14.276;2023-05-14T09:13:05;4.90;;;4.30;;
12314;SDS011;23886;46.614;14.276;2023-05-14T09:15:34;5.23;;;4.73;;
12314;SDS011;23886;46.614;14.276;2023-05-14T09:18:03;4.80;;;4.40;;
12314;SDS011;23886;46.614;14.276;2023-05-14T09:20:30;5.40;;;4.07;;
12314;SDS011;23886;46.614;14.276;2023-05-14T09:22:59;4.70;;;4.30;;
12314;SDS011;23886;46.614;14.276;2023-05-14T09:25:26;5.53;;;5.13;;
12314;SDS011;23886;46.614;14.276;2023-05-14T09:27:56;12.93;;;11.63;;
12314;SDS011;23886;46.614;14.276;2023-05-14T09:30:23;16.40;;;14.63;;
12314;SDS011;23886;46.614;14.276;2023-05-14T09:32:52;7.10;;;6.50;;
12314;SDS011;23886;46.614;14.276;2023-05-14T09:35:20;6.23;;;5.73;;
12314;SDS011;23886;46.614;14.276;2023-05-14T09:37:49;5.73;;;5.23;;
12314;SDS011;23886;46.614;14.276;2023-05-14T09:40:18;5.23;;;4.77;;
12314;SDS011;23886;46.614;14.276;2023-05-14T09:42:47;12.83;;;11.67;;
12314;SDS011;23886;46.614;14.276;2023-05-14T09:45:14;7.87;;;7.20;;
12314;SDS011;23886;46.614;14.276;2023-05-14T09:47:41;12.40;;;11.40;;
12314;SDS011;23886;46.614;14.276;2023-05-14T09:50:09;10.00;;;9.20;;
12314;SDS011;23886;46.614;14.276;2023-05-14T09:52:36;5.80;;;5.30;;
12314;SDS011;23886;46.614;14.276;2023-05-14T09:55:04;4.27;;;3.83;;
12314;SDS011;23886;46.614;14.276;2023-05-14T09:57:33;3.80;;;3.50;;
12314;SDS011;23886;46.614;14.276;2023-05-14T10:00:00;3.97;;;3.57;;
12314;SDS011;23886;46.614;14.276;2023-05-14T10:02:29;3.10;;;2.90;;
12314;SDS011;23886;46.614;14.276;2023-05-14T10:05:02;2.80;;;2.60;;
12314;SDS011;23886;46.614;14.276;2023-05-14T10:07:32;4.43;;;4.13;;
12314;SDS011;23886;46.614;14.276;2023-05-14T10:10:05;1.90;;;1.80;;
12314;SDS011;23886;46.614;14.276;2023-05-14T10:12:36;2.70;;;2.50;;
12314;SDS011;23886;46.614;14.276;2023-05-14T10:15:08;5.33;;;4.93;;
12314;SDS011;23886;46.614;14.276;2023-05-14T10:17:42;2.50;;;2.00;;
12314;SDS011;23886;46.614;14.276;2023-05-14T10:20:14;2.50;;;2.10;;
12314;SDS011;23886;46.614;14.276;2023-05-14T10:22:41;2.30;;;2.10;;
12314;SDS011;23886;46.614;14.276;2023-05-14T10:25:09;2.00;;;1.90;;
12314;SDS011;23886;46.614;14.276;2023-05-14T10:27:38;2.40;;;2.20;;
12314;SDS011;23886;46.614;14.276;2023-05-14T10:30:09;2.17;;;2.00;;
12314;SDS011;23886;46.614;14.276;2023-05-14T10:32:37;3.53;;;2.70;;
12314;SDS011;23886;46.614;14.276;2023-05-14T10:35:14;3.40;;;2.80;;
12314;SDS011;23886;46.614;14.276;2023-05-14T10:37:42;3.13;;;2.90;;
12314;SDS011;23886;46.614;14.276;2023-05-14T10:40:11;4.40;;;3.40;;
12314;SDS011;23886;46.614;14.276;2023-05-14T10:42:40;3.47;;;3.17;;
12314;SDS011;23886;46.614;14.276;2023-05-14T10:45:09;3.13;;;2.83;;
12314;SDS011;23886;46.614;14.276;2023-05-14T10:47:38;3.20;;;3.00;;
12314;SDS011;23886;46.614;14.276;2023-05-14T10:50:09;3.17;;;2.97;;
12314;SDS011;23886;46.614;14.276;2023-05-14T10:52:39;3.30;;;3.00;;
12314;SDS011;23886;46.614;14.276;2023-05-14T10:55:07;3.40;;;3.10;;
12314;SDS011;23886;46.614;14.276;2023-05-14T10:57:38;3.07;;;2.83;;
12314;SDS011;23886;46.614;14.276;2023-05-14T11:00:08;3.40;;;3.10;;
12314;SDS011;23886;46.614;14.276;2023-05-14T11:02:38;3.57;;;2.77;;
12314;SDS011;23886;46.614;14.276;2023-05-14T11:05:06;3.47;;;3.17;;
12314;SDS011;23886;46.614;14.276;2023-05-14T11:07:36;3.20;;;2.90;;
12314;SDS011;23886;46.614;14.276;2023-05-14T11:10:04;3.33;;;2.70;;
12314;SDS011;23886;46.614;14.276;2023-05-14T11:12:32;3.03;;;2.83;;
12314;SDS011;23886;46.614;14.276;2023-05-14T11:15:02;3.43;;;3.13;;
12314;SDS011;23886;46.614;14.276;2023-05-14T11:17:31;3.27;;;3.00;;
12314;SDS011;23886;46.614;14.276;2023-05-14T11:20:00;3.33;;;3.10;;
12314;SDS011;23886;46.614;14.276;2023-05-14T11:22:27;3.87;;;3.53;;
12314;SDS011;23886;46.614;14.276;2023-05-14T11:24:54;4.50;;;3.90;;
12314;SDS011;23886;46.614;14.276;2023-05-14T11:27:22;3.50;;;3.20;;
12314;SDS011;23886;46.614;14.276;2023-05-14T11:29:50;3.00;;;2.80;;
12314;SDS011;23886;46.614;14.276;2023-05-14T11:32:18;3.53;;;3.23;;
12314;SDS011;23886;46.614;14.276;2023-05-14T11:34:45;2.90;;;2.70;;
12314;SDS011;23886;46.614;14.276;2023-05-14T11:37:13;3.43;;;3.13;;
12314;SDS011;23886;46.614;14.276;2023-05-14T11:39:52;3.63;;;3.33;;
12314;SDS011;23886;46.614;14.276;2023-05-14T11:42:21;3.40;;;3.10;;
12314;SDS011;23886;46.614;14.276;2023-05-14T11:44:49;4.47;;;3.07;;
12314;SDS011;23886;46.614;14.276;2023-05-14T11:47:19;3.70;;;3.20;;
12314;SDS011;23886;46.614;14.276;2023-05-14T11:49:47;3.50;;;3.20;;
12314;SDS011;23886;46.614;14.276;2023-05-14T11:52:15;4.13;;;3.10;;
12314;SDS011;23886;46.614;14.276;2023-05-14T11:54:43;4.00;;;3.70;;
12314;SDS011;23886;46.614;14.276;2023-05-14T11:57:11;4.67;;;3.03;;
12314;SDS011;23886;46.614;14.276;2023-05-14T11:59:39;4.10;;;3.10;;
12314;SDS011;23886;46.614;14.276;2023-05-14T12:02:07;3.07;;;2.70;;
12314;SDS011;23886;46.614;14.276;2023-05-14T12:04:38;3.03;;;2.70;;
12314;SDS011;23886;46.614;14.276;2023-05-14T12:07:09;2.93;;;2.60;;
12314;SDS011;23886;46.614;14.276;2023-05-14T12:09:37;2.67;;;2.47;;
12314;SDS011;23886;46.614;14.276;2023-05-14T12:12:09;2.67;;;2.30;;
12314;SDS011;23886;46.614;14.276;2023-05-14T12:14:37;2.97;;;2.60;;
12314;SDS011;23886;46.614;14.276;2023-05-14T12:17:10;2.83;;;2.23;;
12314;SDS011;23886;46.614;14.276;2023-05-14T12:19:40;3.67;;;2.87;;
12314;SDS011;23886;46.614;14.276;2023-05-14T12:22:08;2.50;;;2.30;;
12314;SDS011;23886;46.614;14.276;2023-05-14T12:24:36;2.70;;;2.40;;
12314;SDS011;23886;46.614;14.276;2023-05-14T12:27:05;2.43;;;2.23;;
12314;SDS011;23886;46.614;14.276;2023-05-14T12:29:34;3.88;;;2.15;;
12314;SDS011;23886;46.614;14.276;2023-05-14T12:32:05;2.23;;;2.00;;
12314;SDS011;23886;46.614;14.276;2023-05-14T12:34:33;2.33;;;2.17;;
12314;SDS011;23886;46.614;14.276;2023-05-14T12:37:02;2.97;;;2.47;;
12314;SDS011;23886;46.614;14.276;2023-05-14T12:39:31;3.73;;;3.03;;
12314;SDS011;23886;46.614;14.276;2023-05-14T12:41:58;2.80;;;2.50;;
12314;SDS011;23886;46.614;14.276;2023-05-14T12:44:25;2.70;;;2.50;;
12314;SDS011;23886;46.614;14.276;2023-05-14T12:46:52;3.40;;;2.60;;
12314;SDS011;23886;46.614;14.276;2023-05-14T12:49:19;2.60;;;2.40;;
12314;SDS011;23886;46.614;14.276;2023-05-14T12:51:46;2.77;;;2.40;;
12314;SDS011;23886;46.614;14.276;2023-05-14T12:54:15;2.50;;;2.30;;
12314;SDS011;23886;46.614;14.276;2023-05-14T12:56:42;2.60;;;2.40;;
12314;SDS011;23886;46.614;14.276;2023-05-14T12:59:09;3.13;;;2.87;;
12314;SDS011;23886;46.614;14.276;2023-05-14T13:01:36;3.27;;;2.77;;
12314;SDS011;23886;46.614;14.276;2023-05-14T13:04:03;2.70;;;2.50;;
12314;SDS011;23886;46.614;14.276;2023-05-14T13:06:30;3.10;;;2.47;;
12314;SDS011;23886;46.614;14.276;2023-05-14T13:08:57;3.97;;;2.77;;
12314;SDS011;23886;46.614;14.276;2023-05-14T13:11:27;2.40;;;2.20;;
12314;SDS011;23886;46.614;14.276;2023-05-14T13:13:56;4.00;;;2.27;;
12314;SDS011;23886;46.614;14.276;2023-05-14T13:16:24;4.87;;;2.10;;
12314;SDS011;23886;46.614;14.276;2023-05-14T13:18:51;3.47;;;1.80;;
12314;SDS011;23886;46.614;14.276;2023-05-14T13:21:18;2.10;;;1.90;;
12314;SDS011;23886;46.614;14.276;2023-05-14T13:23:45;3.20;;;1.90;;
12314;SDS011;23886;46.614;14.276;2023-05-14T13:26:12;2.67;;;2.00;;
12314;SDS011;23886;46.614;14.276;2023-05-14T13:28:41;7.53;;;2.47;;
12314;SDS011;23886;46.614;14.276;2023-05-14T13:31:08;3.43;;;2.00;;
12314;SDS011;23886;46.614;14.276;2023-05-14T13:33:36;2.30;;;2.10;;
12314;SDS011;23886;46.614;14.276;2023-05-14T13:36:06;3.40;;;2.30;;
12314;SDS011;23886;46.614;14.276;2023-05-14T13:38:34;5.53;;;5.03;;
12314;SDS011;23886;46.614;14.276;2023-05-14T13:41:01;5.90;;;5.50;;
12314;SDS011;23886;46.614;14.276;2023-05-14T13:43:28;4.60;;;4.20;;
12314;SDS011;23886;46.614;14.276;2023-05-14T13:45:57;2.60;;;2.40;;
12314;SDS011;23886;46.614;14.276;2023-05-14T13:48:25;3.90;;;3.60;;
12314;SDS011;23886;46.614;14.276;2023-05-14T13:50:53;2.60;;;2.30;;
12314;SDS011;23886;46.614;14.276;2023-05-14T13:53:20;2.60;;;2.40;;
12314;SDS011;23886;46.614;14.276;2023-05-14T13:55:48;2.70;;;2.50;;
12314;SDS011;23886;46.614;14.276;2023-05-14T13:58:20;2.60;;;2.40;;
12314;SDS011;23886;46.614;14.276;2023-05-14T14:00:47;2.60;;;2.40;;
12314;SDS011;23886;46.614;14.276;2023-05-14T14:03:15;2.60;;;2.10;;
12314;SDS011;23886;46.614;14.276;2023-05-14T14:05:43;1.63;;;1.53;;
12314;SDS011;23886;46.614;14.276;2023-05-14T14:08:10;1.90;;;1.70;;
12314;SDS011;23886;46.614;14.276;2023-05-14T14:10:37;2.20;;;2.00;;
12314;SDS011;23886;46.614;14.276;2023-05-14T14:13:05;2.10;;;1.90;;
12314;SDS011;23886;46.614;14.276;2023-05-14T14:15:32;1.60;;;1.50;;
12314;SDS011;23886;46.614;14.276;2023-05-14T14:17:59;1.90;;;1.80;;
12314;SDS011;23886;46.614;14.276;2023-05-14T14:20:27;1.63;;;1.53;;
12314;SDS011;23886;46.614;14.276;2023-05-14T14:22:55;1.90;;;1.80;;
12314;SDS011;23886;46.614;14.276;2023-05-14T14:25:22;4.60;;;2.50;;
12314;SDS011;23886;46.614;14.276;2023-05-14T14:27:49;2.60;;;2.40;;
12314;SDS011;23886;46.614;14.276;2023-05-14T14:30:16;1.70;;;1.60;;
12314;SDS011;23886;46.614;14.276;2023-05-14T14:32:43;2.10;;;1.90;;
12314;SDS011;23886;46.614;14.276;2023-05-14T14:35:11;2.20;;;2.00;;
12314;SDS011;23886;46.614;14.276;2023-05-14T14:37:40;2.00;;;1.90;;